Farmville, Virginia
Current Conditions -  °F | °C
As of 12:55 AM on Wednesday 22 Oct 2014 (Local Time) from KFVX Reporting Station
Overcast Overcast  
Wind Chill: 12°   Ceiling: 6000
Heat Index: 12°   Visibility: 10mi
Dew Point:   Wind: 3mph
Humidity: 77%   Direction: 310°NW
Pressure: 29.9"   Gusts: NA
Location:  37.3°N, 78.39°W
Report Text: KFVX 220455Z AUTO 31003KT 10SM BKN060 OVC080 12/08 A2990 RMK AO2
Loading
Personal Weather Stations






























Interactive Weather Map
Tropical Storm Tracking
New forecast layout! Learn more

10-Day Weather Forecast

Advertisements
Track Severe Weather on mobile